Time;durP1;ratioP1;P1;durP2;ratioP2;P2;SDS_P1;SDS_P2;PMS_P1;PMS_P2;Temp;Humidity;BMP_temperature;BMP_pressure;BME280_temperature;BME280_humidity;BME280_pressure;Samples;Min_cycle;Max_cycle;Signal;HPM_P1;HPM_P2
2020/12/07 00:00:13;;;;;;;41.72;23.27;;;6.20;93.20;;;;;;5047485;28;20535;-77
2020/12/07 00:02:40;;;;;;;48.72;24.98;;;6.20;93.20;;;;;;5064542;28;20033;-76
2020/12/07 00:05:06;;;;;;;47.22;24.92;;;6.20;93.20;;;;;;5064455;28;20483;-77
2020/12/07 00:07:32;;;;;;;46.78;24.08;;;6.10;93.20;;;;;;5069861;28;20097;-77
2020/12/07 00:09:57;;;;;;;43.30;22.88;;;6.10;93.20;;;;;;5062980;28;20028;-77
2020/12/07 00:12:27;;;;;;;44.08;23.73;;;6.10;93.20;;;;;;5063134;28;20472;-76
2020/12/07 00:14:53;;;;;;;47.75;24.40;;;6.10;93.20;;;;;;5063794;28;20024;-77
2020/12/07 00:17:20;;;;;;;46.70;24.83;;;6.10;93.20;;;;;;5062702;28;20024;-77
2020/12/07 00:19:46;;;;;;;47.42;24.75;;;6.10;93.20;;;;;;5064913;28;20025;-76
2020/12/07 00:22:12;;;;;;;51.15;25.55;;;6.10;93.20;;;;;;5064049;28;20036;-77
2020/12/07 00:24:38;;;;;;;45.42;24.17;;;6.20;93.30;;;;;;5062052;28;20040;-77
2020/12/07 00:27:03;;;;;;;47.78;25.98;;;6.20;93.20;;;;;;5061735;28;20025;-77
2020/12/07 00:29:29;;;;;;;43.60;24.50;;;6.20;93.20;;;;;;5062309;28;20025;-77
2020/12/07 00:31:55;;;;;;;44.38;22.92;;;6.20;93.20;;;;;;5061838;28;20025;-77
2020/12/07 00:34:20;;;;;;;45.03;24.50;;;6.10;93.20;;;;;;5059997;28;20033;-76
2020/12/07 00:36:47;;;;;;;40.03;23.27;;;6.20;93.20;;;;;;5061207;28;20484;-76
2020/12/07 00:39:13;;;;;;;39.72;22.92;;;6.10;93.20;;;;;;5045254;28;20032;-76
2020/12/07 00:41:38;;;;;;;42.17;23.30;;;6.10;93.20;;;;;;5061383;28;20373;-77
2020/12/07 00:44:04;;;;;;;46.80;24.23;;;6.20;93.20;;;;;;5060238;28;20028;-76
2020/12/07 00:46:34;;;;;;;47.75;23.70;;;6.10;93.20;;;;;;5044867;28;20037;-77
2020/12/07 00:48:59;;;;;;;41.00;21.92;;;6.10;93.10;;;;;;5060985;28;20500;-76
2020/12/07 00:51:25;;;;;;;42.65;24.65;;;6.10;93.10;;;;;;5045337;28;20075;-77
2020/12/07 00:53:50;;;;;;;40.95;23.23;;;6.10;93.10;;;;;;5061617;28;20032;-77
2020/12/07 00:56:16;;;;;;;42.95;23.75;;;6.10;93.10;;;;;;5062021;28;20028;-77
2020/12/07 00:58:42;;;;;;;38.92;23.52;;;6.10;93.10;;;;;;5043637;28;20028;-77
2020/12/07 01:01:07;;;;;;;44.40;23.67;;;6.10;93.10;;;;;;5060185;28;20028;-77
2020/12/07 01:03:33;;;;;;;41.72;22.92;;;6.10;93.10;;;;;;5062584;28;20472;-77
2020/12/07 01:06:00;;;;;;;39.47;21.52;;;6.10;93.10;;;;;;5065901;28;20395;-77
2020/12/07 01:08:25;;;;;;;38.22;21.70;;;6.10;93.20;;;;;;5079298;28;20029;-77
2020/12/07 01:10:57;;;;;;;39.30;21.23;;;6.00;93.20;;;;;;5054681;28;20029;-77
2020/12/07 01:13:23;;;;;;;38.78;22.05;;;6.10;93.30;;;;;;5056871;28;20032;-77
2020/12/07 01:15:52;;;;;;;39.20;21.60;;;6.10;93.10;;;;;;5079314;28;20480;-76
2020/12/07 01:18:17;;;;;;;36.58;21.38;;;6.00;93.10;;;;;;5063447;28;20025;-77
2020/12/07 01:20:43;;;;;;;37.10;21.40;;;6.10;93.20;;;;;;5061902;28;20377;-77
2020/12/07 01:23:09;;;;;;;39.20;21.73;;;6.00;93.10;;;;;;5078174;28;20040;-77
2020/12/07 01:25:34;;;;;;;39.97;21.77;;;6.00;93.10;;;;;;5048141;28;20040;-77
2020/12/07 01:28:00;;;;;;;38.45;20.77;;;6.00;93.10;;;;;;5072243;28;20091;-77
2020/12/07 01:30:26;;;;;;;37.83;21.73;;;6.00;93.10;;;;;;5047813;28;20524;-77
2020/12/07 01:32:52;;;;;;;37.00;21.02;;;6.00;93.10;;;;;;5051641;28;20051;-77
2020/12/07 01:35:17;;;;;;;35.30;20.15;;;6.00;93.20;;;;;;5062092;28;20490;-77
2020/12/07 01:37:43;;;;;;;37.17;21.85;;;6.00;93.20;;;;;;5063598;28;20036;-76
2020/12/07 01:40:09;;;;;;;36.08;20.38;;;6.00;93.20;;;;;;5061693;28;20188;-76
2020/12/07 01:42:34;;;;;;;35.03;19.75;;;6.00;93.20;;;;;;5058823;28;20074;-76
2020/12/07 01:45:00;;;;;;;32.60;19.45;;;6.00;93.30;;;;;;5062838;28;20033;-76
2020/12/07 01:47:28;;;;;;;40.53;20.42;;;6.00;93.50;;;;;;5060666;28;20495;-77
2020/12/07 01:49:54;;;;;;;30.50;17.92;;;6.00;93.50;;;;;;5079363;28;20029;-77
2020/12/07 01:52:21;;;;;;;32.78;19.70;;;6.10;93.60;;;;;;5075190;28;20052;-77
2020/12/07 01:54:48;;;;;;;35.03;20.15;;;6.10;93.50;;;;;;5062914;28;20044;-77
2020/12/07 01:57:14;;;;;;;35.47;20.25;;;6.10;93.60;;;;;;5042433;28;20024;-76
2020/12/07 01:59:40;;;;;;;33.22;19.90;;;6.10;93.70;;;;;;5073947;28;20036;-77
2020/12/07 02:02:06;;;;;;;36.25;20.85;;;6.10;93.70;;;;;;5066341;28;20055;-77
2020/12/07 02:04:32;;;;;;;32.88;19.35;;;6.10;93.70;;;;;;5065967;28;20043;-77
2020/12/07 02:06:58;;;;;;;28.13;18.05;;;6.20;93.70;;;;;;5060302;28;20420;-77
2020/12/07 02:09:27;;;;;;;32.00;18.60;;;6.20;93.70;;;;;;5064737;28;20351;-77
2020/12/07 02:11:53;;;;;;;29.83;18.33;;;6.20;93.60;;;;;;5042178;28;20029;-76
2020/12/07 02:14:19;;;;;;;34.72;19.27;;;6.20;93.60;;;;;;5054736;28;20038;-77
2020/12/07 02:16:45;;;;;;;29.48;18.50;;;6.20;93.60;;;;;;5064948;28;20039;-77
2020/12/07 02:19:10;;;;;;;32.20;19.25;;;6.20;93.60;;;;;;5074895;28;20033;-77
2020/12/07 02:21:36;;;;;;;30.33;18.35;;;6.20;93.60;;;;;;5080994;28;20036;-77
2020/12/07 02:24:02;;;;;;;32.20;17.45;;;6.20;93.60;;;;;;5067778;28;20062;-77
2020/12/07 02:26:27;;;;;;;30.63;17.65;;;6.20;93.60;;;;;;5064666;28;20025;-77
2020/12/07 02:28:53;;;;;;;29.27;17.15;;;6.20;93.60;;;;;;5063616;28;20028;-76
2020/12/07 02:31:19;;;;;;;31.08;19.00;;;6.20;93.50;;;;;;5064492;28;20445;-77
2020/12/07 02:33:44;;;;;;;32.67;18.33;;;6.30;93.50;;;;;;5063907;28;20021;-77
2020/12/07 02:36:11;;;;;;;28.95;18.23;;;6.30;93.50;;;;;;5067872;28;20063;-77
2020/12/07 02:38:37;;;;;;;26.00;16.67;;;6.30;93.50;;;;;;5068373;28;20094;-77
2020/12/07 02:41:03;;;;;;;26.73;16.73;;;6.30;93.50;;;;;;5048861;28;20033;-76
2020/12/07 02:43:29;;;;;;;28.83;16.90;;;6.30;93.40;;;;;;5064035;28;20114;-76
2020/12/07 02:45:55;;;;;;;27.48;16.15;;;6.30;93.60;;;;;;5065879;28;20122;-76
2020/12/07 02:48:20;;;;;;;26.90;17.08;;;6.30;93.20;;;;;;5058318;22;20504;-77
2020/12/07 02:50:46;;;;;;;27.10;17.15;;;6.30;93.10;;;;;;5032256;28;20032;-78
2020/12/07 02:53:12;;;;;;;25.77;16.42;;;6.30;93.20;;;;;;5024206;28;20030;-78
2020/12/07 02:55:37;;;;;;;30.10;17.15;;;6.40;93.20;;;;;;5005617;28;20140;-78
2020/12/07 02:58:03;;;;;;;28.48;16.85;;;6.40;93.40;;;;;;5022034;28;20035;-77
2020/12/07 03:00:29;;;;;;;27.30;16.20;;;6.40;93.40;;;;;;5021489;28;20038;-77
2020/12/07 03:02:54;;;;;;;25.45;16.00;;;6.40;93.30;;;;;;5026483;28;20044;-78
2020/12/07 03:05:20;;;;;;;25.50;15.52;;;6.40;93.30;;;;;;5030782;28;20122;-77
2020/12/07 03:07:46;;;;;;;27.17;15.75;;;6.40;93.30;;;;;;5048553;28;20033;-78
2020/12/07 03:10:11;;;;;;;26.00;16.00;;;6.40;93.20;;;;;;5019910;28;20025;-78
2020/12/07 03:12:37;;;;;;;25.90;16.02;;;6.40;93.20;;;;;;5010621;28;20049;-77
2020/12/07 03:15:03;;;;;;;27.00;16.25;;;6.40;93.20;;;;;;5052993;28;20053;-78
2020/12/07 03:17:28;;;;;;;25.45;15.23;;;6.40;93.10;;;;;;5028660;28;20132;-78
2020/12/07 03:19:54;;;;;;;29.17;16.45;;;6.40;93.00;;;;;;5024860;28;20029;-78
2020/12/07 03:22:20;;;;;;;25.70;16.58;;;6.40;93.00;;;;;;5026884;28;20488;-77
2020/12/07 03:24:45;;;;;;;24.75;15.77;;;6.40;93.00;;;;;;5029384;28;20382;-78
2020/12/07 03:27:11;;;;;;;24.42;15.25;;;6.50;93.10;;;;;;5030337;28;20022;-77
2020/12/07 03:29:37;;;;;;;24.60;15.43;;;6.40;92.90;;;;;;5023506;28;20018;-78
2020/12/07 03:32:03;;;;;;;26.20;15.35;;;6.40;93.00;;;;;;5045857;28;20378;-78
2020/12/07 03:34:28;;;;;;;24.88;16.70;;;6.40;92.90;;;;;;5038864;28;20060;-78
2020/12/07 03:36:54;;;;;;;26.08;16.45;;;6.50;93.00;;;;;;5040832;28;20030;-77
2020/12/07 03:39:19;;;;;;;23.65;15.32;;;6.50;93.10;;;;;;5022688;28;20018;-77
2020/12/07 03:41:45;;;;;;;27.30;15.75;;;6.50;93.00;;;;;;5022088;28;20037;-78
2020/12/07 03:44:11;;;;;;;28.05;16.35;;;6.50;93.00;;;;;;5024014;28;20037;-78
2020/12/07 03:46:37;;;;;;;26.50;16.35;;;6.50;93.00;;;;;;5006636;28;20022;-78
2020/12/07 03:49:02;;;;;;;25.48;15.13;;;6.50;93.00;;;;;;5005681;28;20034;-77
2020/12/07 03:51:28;;;;;;;26.45;15.43;;;6.50;93.10;;;;;;5031368;28;20516;-77
2020/12/07 03:53:54;;;;;;;25.10;15.32;;;6.50;93.00;;;;;;5026646;28;20034;-78
2020/12/07 03:56:19;;;;;;;27.02;15.88;;;6.50;93.20;;;;;;5021965;28;20029;-77
2020/12/07 03:58:45;;;;;;;23.08;15.55;;;6.50;93.30;;;;;;5030224;28;20044;-78
2020/12/07 04:01:11;;;;;;;23.48;14.88;;;6.50;93.30;;;;;;5026674;28;20038;-77
2020/12/07 04:03:39;;;;;;;26.08;15.93;;;6.50;93.20;;;;;;5025671;28;20029;-78
2020/12/07 04:06:23;;;;;;;28.15;16.05;;;6.50;93.40;;;;;;5024205;28;20116;-78
2020/12/07 04:08:49;;;;;;;24.75;15.48;;;6.50;93.50;;;;;;5021911;28;20030;-78
2020/12/07 04:11:14;;;;;;;24.52;15.20;;;6.50;93.50;;;;;;5039148;28;20033;-77
2020/12/07 04:13:40;;;;;;;24.63;15.50;;;6.50;93.60;;;;;;5024783;28;20037;-78
2020/12/07 04:16:06;;;;;;;27.55;15.45;;;6.60;93.60;;;;;;5023678;28;20049;-77
2020/12/07 04:18:31;;;;;;;23.90;15.68;;;6.60;93.50;;;;;;5020059;28;20072;-78
2020/12/07 04:21:00;;;;;;;27.00;16.02;;;6.60;93.70;;;;;;4999986;28;20641;-77
2020/12/07 04:23:27;;;;;;;28.23;16.92;;;6.60;93.60;;;;;;5021397;28;20065;-78
2020/12/07 04:25:52;;;;;;;24.48;15.55;;;6.60;93.70;;;;;;5020231;28;20057;-78
2020/12/07 04:28:18;;;;;;;23.42;14.95;;;6.60;93.60;;;;;;5023254;28;20060;-78
2020/12/07 04:30:44;;;;;;;25.05;15.80;;;6.60;93.70;;;;;;5020103;28;20038;-77
2020/12/07 04:33:09;;;;;;;24.58;15.27;;;6.60;93.70;;;;;;5023387;28;20025;-77
2020/12/07 04:35:35;;;;;;;26.45;16.35;;;6.60;93.70;;;;;;5026059;28;20508;-78
2020/12/07 04:38:01;;;;;;;27.27;16.27;;;6.70;93.80;;;;;;5014541;28;20038;-77
2020/12/07 04:40:28;;;;;;;28.00;17.13;;;6.70;93.90;;;;;;5019308;28;20472;-77
2020/12/07 04:42:55;;;;;;;23.63;16.20;;;6.70;93.90;;;;;;5019868;28;20434;-78
2020/12/07 04:45:22;;;;;;;26.17;16.85;;;6.70;93.90;;;;;;5026618;28;20492;-77
2020/12/07 04:47:52;;;;;;;28.15;15.93;;;6.70;94.00;;;;;;5004491;28;20034;-78
2020/12/07 04:50:18;;;;;;;27.92;17.83;;;6.70;93.80;;;;;;5023230;28;20397;-77
2020/12/07 04:52:45;;;;;;;28.08;15.98;;;6.80;93.80;;;;;;4999775;28;20036;-77
2020/12/07 04:55:10;;;;;;;26.08;16.33;;;6.80;93.80;;;;;;5038667;28;20052;-77
2020/12/07 04:57:37;;;;;;;24.25;16.27;;;6.80;94.00;;;;;;5021517;28;20030;-78
2020/12/07 05:00:05;;;;;;;25.38;16.20;;;6.80;93.90;;;;;;5020106;28;20030;-77
2020/12/07 05:02:31;;;;;;;25.50;16.05;;;6.80;93.80;;;;;;4983927;28;20038;-77
2020/12/07 05:04:56;;;;;;;25.02;15.77;;;6.80;93.80;;;;;;5033877;28;20037;-78
2020/12/07 05:07:22;;;;;;;24.42;15.48;;;6.90;93.70;;;;;;5015421;28;20594;-78
2020/12/07 05:09:48;;;;;;;31.98;16.00;;;6.90;93.80;;;;;;5028264;28;20068;-78
2020/12/07 05:12:21;;;;;;;27.05;15.52;;;6.90;93.60;;;;;;5021677;28;20017;-78
2020/12/07 05:14:47;;;;;;;23.52;14.95;;;6.90;93.60;;;;;;5021043;28;20057;-78
2020/12/07 05:17:16;;;;;;;24.52;15.80;;;6.90;93.60;;;;;;5042678;28;20045;-77
2020/12/07 05:19:45;;;;;;;22.58;14.75;;;6.90;93.60;;;;;;5032092;28;20040;-77
2020/12/07 05:22:15;;;;;;;26.23;15.20;;;6.90;93.50;;;;;;5034745;28;20034;-77
2020/12/07 05:24:42;;;;;;;23.08;15.05;;;6.90;93.50;;;;;;4992098;28;20025;-77
2020/12/07 05:27:14;;;;;;;23.65;15.05;;;6.90;93.50;;;;;;5015862;28;20453;-78
2020/12/07 05:32:33;;;;;;;21.40;14.25;;;6.90;93.50;;;;;;4978053;28;20061;-78
2020/12/07 05:35:01;;;;;;;28.55;15.93;;;7.00;93.40;;;;;;5038487;28;20176;-78
2020/12/07 05:37:30;;;;;;;23.27;15.55;;;7.00;93.40;;;;;;5026816;28;20393;-78
2020/12/07 05:39:56;;;;;;;26.05;15.50;;;7.00;93.40;;;;;;5020749;28;20370;-78
2020/12/07 05:42:23;;;;;;;28.23;16.35;;;7.00;93.30;;;;;;5022902;28;20036;-78
2020/12/07 05:44:52;;;;;;;26.15;14.70;;;7.10;93.30;;;;;;5012355;28;20049;-75
2020/12/07 05:47:20;;;;;;;23.48;14.50;;;7.10;93.30;;;;;;5012262;28;20045;-78
2020/12/07 05:49:49;;;;;;;25.08;14.82;;;7.10;93.20;;;;;;5027958;28;20025;-77
2020/12/07 05:52:37;;;;;;;23.42;14.75;;;7.10;93.10;;;;;;4981741;28;20033;-77
2020/12/07 05:55:03;;;;;;;22.35;14.07;;;7.10;93.00;;;;;;4981628;28;20053;-79
2020/12/07 05:57:31;;;;;;;24.38;14.25;;;7.10;93.10;;;;;;5017675;28;20412;-77
2020/12/07 06:00:05;;;;;;;24.75;13.85;;;7.10;93.00;;;;;;5016800;28;20121;-80
2020/12/07 06:02:35;;;;;;;23.67;14.75;;;7.10;93.00;;;;;;5015156;28;20432;-78
2020/12/07 06:05:02;;;;;;;25.25;14.43;;;7.20;93.00;;;;;;5029090;28;20055;-79
2020/12/07 06:07:32;;;;;;;25.67;15.18;;;7.20;92.80;;;;;;5022690;28;20021;-78
2020/12/07 06:10:02;;;;;;;25.30;13.88;;;7.20;92.90;;;;;;5027306;28;20041;-77
2020/12/07 06:12:36;;;;;;;21.23;14.00;;;7.20;92.80;;;;;;5018428;28;20028;-77
2020/12/07 06:15:02;;;;;;;26.48;14.25;;;7.20;92.80;;;;;;5008404;28;20588;-78
2020/12/07 06:17:32;;;;;;;23.45;14.52;;;7.20;92.80;;;;;;5016827;28;20080;-78
2020/12/07 06:19:57;;;;;;;23.95;14.10;;;7.20;92.70;;;;;;5003283;28;20061;-79
2020/12/07 06:22:23;;;;;;;22.38;14.20;;;7.20;92.70;;;;;;5018030;28;20397;-78
2020/12/07 06:24:51;;;;;;;22.00;13.35;;;7.30;92.70;;;;;;5038678;28;20378;-78
2020/12/07 06:27:18;;;;;;;24.05;13.52;;;7.30;92.60;;;;;;5031413;28;20022;-77
2020/12/07 06:30:02;;;;;;;24.85;14.63;;;7.30;92.60;;;;;;5025126;28;20037;-77
2020/12/07 06:32:51;;;;;;;24.65;14.75;;;7.30;92.60;;;;;;5012107;28;20026;-78
2020/12/07 06:35:18;;;;;;;23.45;14.63;;;7.30;92.50;;;;;;5020482;28;20022;-77
2020/12/07 06:37:49;;;;;;;22.70;13.10;;;7.30;92.40;;;;;;5031071;28;20080;-76
2020/12/07 06:40:17;;;;;;;24.70;14.52;;;7.30;92.40;;;;;;5023925;28;20109;-77
2020/12/07 06:42:44;;;;;;;20.58;12.73;;;7.30;92.30;;;;;;5021405;28;20042;-77
2020/12/07 06:45:31;;;;;;;20.88;12.90;;;7.30;92.30;;;;;;5015431;28;20030;-76
2020/12/07 06:48:06;;;;;;;22.98;13.30;;;7.30;92.30;;;;;;5019929;28;20081;-77
2020/12/07 06:50:37;;;;;;;20.23;12.48;;;7.40;92.20;;;;;;5019225;28;20121;-77
2020/12/07 06:55:53;;;;;;;21.08;12.93;;;7.30;92.20;;;;;;5014401;28;20033;-77
2020/12/07 06:58:33;;;;;;;23.60;12.73;;;7.30;92.10;;;;;;5022121;28;20033;-77
2020/12/07 07:01:14;;;;;;;23.35;13.85;;;7.40;92.10;;;;;;4994527;28;20026;-78
2020/12/07 07:03:56;;;;;;;21.98;13.15;;;7.40;92.10;;;;;;4985220;28;20029;-78
2020/12/07 07:06:22;;;;;;;22.95;13.35;;;7.40;92.10;;;;;;5024546;28;20029;-77
2020/12/07 07:08:49;;;;;;;23.65;13.93;;;7.30;92.10;;;;;;5021326;28;20030;-78
2020/12/07 07:11:16;;;;;;;25.60;14.07;;;7.40;92.10;;;;;;5006636;28;20087;-77
2020/12/07 07:13:49;;;;;;;23.23;13.25;;;7.40;92.00;;;;;;5019314;28;20025;-78
2020/12/07 07:16:17;;;;;;;24.80;12.52;;;7.40;92.00;;;;;;4997001;28;20033;-78
2020/12/07 07:18:42;;;;;;;22.67;13.15;;;7.40;92.00;;;;;;5017145;28;20112;-78
2020/12/07 07:21:08;;;;;;;22.00;13.32;;;7.40;91.90;;;;;;5040463;28;20101;-78
2020/12/07 07:23:39;;;;;;;22.35;12.80;;;7.40;91.90;;;;;;5010017;28;20018;-79
2020/12/07 07:26:20;;;;;;;23.35;13.65;;;7.40;91.80;;;;;;5037618;28;20026;-79
2020/12/07 07:28:46;;;;;;;;;;;7.50;91.80;;;;;;5023507;28;20493;-79
2020/12/07 07:31:12;;;;;;;20.92;12.07;;;7.50;91.70;;;;;;4990114;28;19932;-78
2020/12/07 07:33:38;;;;;;;25.98;13.60;;;7.50;91.70;;;;;;5011612;28;20493;-77
2020/12/07 07:36:03;;;;;;;23.27;13.60;;;7.50;91.60;;;;;;5022612;28;20030;-78
2020/12/07 07:38:35;;;;;;;22.95;13.38;;;7.50;91.70;;;;;;5023373;28;20044;-78
2020/12/07 07:41:01;;;;;;;24.25;12.95;;;7.50;91.60;;;;;;5015607;28;20034;-77
2020/12/07 07:43:28;;;;;;;26.02;13.00;;;7.50;91.60;;;;;;5023023;28;20076;-77
2020/12/07 07:46:00;;;;;;;21.80;12.55;;;7.50;91.50;;;;;;5038217;28;20397;-77
2020/12/07 07:48:33;;;;;;;21.88;13.00;;;7.50;91.60;;;;;;5020423;28;20037;-77
2020/12/07 07:51:22;;;;;;;23.27;13.57;;;7.50;91.60;;;;;;5015451;28;20045;-77
2020/12/07 08:16:18;;;;;;;23.15;13.13;;;7.60;91.40;;;;;;4998062;28;20072;-77
2020/12/07 08:18:45;;;;;;;25.55;13.30;;;7.50;91.30;;;;;;4996361;28;20037;-77
2020/12/07 08:21:11;;;;;;;24.90;12.77;;;7.60;91.30;;;;;;5014106;28;20029;-77
2020/12/07 08:23:38;;;;;;;22.73;12.90;;;7.60;91.30;;;;;;5029197;28;20423;-78
2020/12/07 08:26:05;;;;;;;24.88;13.10;;;7.50;91.40;;;;;;5016443;28;20113;-77
2020/12/07 08:28:39;;;;;;;22.58;13.13;;;7.50;91.30;;;;;;5017522;28;20017;-78
2020/12/07 08:31:17;;;;;;;21.48;13.80;;;7.50;91.40;;;;;;5017499;28;20022;-77
2020/12/07 08:34:11;;;;;;;27.73;15.13;;;7.50;91.40;;;;;;5014357;28;20400;-77
2020/12/07 08:36:38;;;;;;;23.90;12.65;;;7.50;91.50;;;;;;5005970;28;20056;-78
2020/12/07 08:39:05;;;;;;;25.55;14.40;;;7.60;91.60;;;;;;5034081;28;20391;-78
2020/12/07 08:41:32;;;;;;;22.73;13.45;;;7.90;91.80;;;;;;5011135;28;20025;-78
2020/12/07 08:44:01;;;;;;;28.02;15.32;;;7.90;90.90;;;;;;5013134;28;20080;-77
2020/12/07 08:46:29;;;;;;;25.77;15.18;;;7.90;91.00;;;;;;5009270;28;20037;-77
2020/12/07 08:48:55;;;;;;;27.65;13.77;;;7.80;91.00;;;;;;5075925;22;20037;-78
2020/12/07 08:51:27;;;;;;;24.05;13.73;;;7.80;91.10;;;;;;5074080;28;20463;-77
2020/12/07 08:53:53;;;;;;;24.40;13.80;;;7.70;91.30;;;;;;5055552;28;20059;-78
2020/12/07 08:56:19;;;;;;;23.30;13.15;;;7.70;91.40;;;;;;5052473;28;20067;-78
2020/12/07 08:58:44;;;;;;;22.15;13.15;;;7.70;91.30;;;;;;5070420;28;20032;-78
2020/12/07 09:01:11;;;;;;;22.17;12.40;;;7.70;91.40;;;;;;5068926;28;20031;-78
2020/12/07 09:03:38;;;;;;;23.73;13.50;;;7.60;91.50;;;;;;5069636;28;20111;-79
2020/12/07 09:06:05;;;;;;;22.83;13.25;;;7.60;91.60;;;;;;5048826;28;20077;-78
2020/12/07 09:08:34;;;;;;;22.10;11.90;;;7.70;91.50;;;;;;5036212;28;20392;-78
2020/12/07 09:11:02;;;;;;;21.88;13.45;;;7.60;91.40;;;;;;5074784;28;20025;-78
2020/12/07 09:13:28;;;;;;;22.58;13.63;;;7.60;91.50;;;;;;5039480;28;20026;-79
2020/12/07 09:15:54;;;;;;;22.42;13.35;;;7.60;91.40;;;;;;5057767;28;20112;-79
2020/12/07 09:18:20;;;;;;;22.80;13.30;;;7.60;91.50;;;;;;5056603;28;20035;-78
2020/12/07 09:20:46;;;;;;;21.70;13.35;;;7.50;91.60;;;;;;5048888;28;20029;-78
2020/12/07 09:23:12;;;;;;;20.88;12.50;;;7.50;91.70;;;;;;5046046;28;20553;-78
2020/12/07 09:25:38;;;;;;;22.67;12.93;;;7.50;91.80;;;;;;5041928;28;20028;-79
2020/12/07 09:28:04;;;;;;;25.50;13.85;;;7.40;91.90;;;;;;5061016;28;20032;-78
2020/12/07 09:30:30;;;;;;;23.55;13.88;;;7.40;91.90;;;;;;5047510;28;20522;-79
2020/12/07 09:32:56;;;;;;;23.00;13.50;;;7.40;91.90;;;;;;5063492;28;20543;-78
2020/12/07 09:35:21;;;;;;;22.45;12.77;;;7.40;91.90;;;;;;5044854;28;20036;-78
2020/12/07 09:37:47;;;;;;;22.77;14.18;;;7.50;91.90;;;;;;5061277;28;20036;-78
2020/12/07 09:40:19;;;;;;;23.85;13.68;;;7.50;91.90;;;;;;5045566;28;20112;-78
2020/12/07 09:42:44;;;;;;;29.50;14.57;;;7.40;91.90;;;;;;5045213;28;20033;-78
2020/12/07 09:45:10;;;;;;;28.98;15.98;;;7.60;92.40;;;;;;5061453;28;20487;-78
2020/12/07 09:47:37;;;;;;;29.63;15.23;;;7.80;92.70;;;;;;5044079;28;20025;-78
2020/12/07 09:50:04;;;;;;;27.10;15.50;;;7.80;91.60;;;;;;5043396;28;20033;-78
2020/12/07 09:52:30;;;;;;;25.50;14.05;;;7.80;91.50;;;;;;5034184;28;20112;-78
2020/12/07 09:54:56;;;;;;;25.52;14.88;;;7.70;91.50;;;;;;5043857;28;20044;-77
2020/12/07 09:57:22;;;;;;;24.60;15.63;;;7.60;91.60;;;;;;5060784;28;20476;-78
2020/12/07 09:59:49;;;;;;;27.23;16.00;;;7.60;91.70;;;;;;5054267;28;20154;-78
2020/12/07 10:02:23;;;;;;;24.55;15.00;;;7.60;91.70;;;;;;5036024;28;20029;-78
2020/12/07 10:04:49;;;;;;;25.77;16.20;;;7.50;91.80;;;;;;5068718;28;20106;-78
2020/12/07 10:07:15;;;;;;;28.05;17.42;;;7.50;91.80;;;;;;5052509;28;20016;-79
2020/12/07 10:09:41;;;;;;;29.42;16.55;;;7.40;91.90;;;;;;5052216;28;20020;-78
2020/12/07 10:12:07;;;;;;;29.98;18.15;;;7.40;92.00;;;;;;5065604;28;20020;-78
2020/12/07 10:14:33;;;;;;;26.75;16.50;;;7.40;92.00;;;;;;5053204;28;20067;-78
2020/12/07 10:17:00;;;;;;;29.33;16.77;;;7.40;92.10;;;;;;5068883;28;20074;-78
2020/12/07 10:19:26;;;;;;;28.45;17.60;;;7.40;92.10;;;;;;5071118;28;20077;-80
2020/12/07 10:21:53;;;;;;;28.13;17.48;;;7.40;92.10;;;;;;5045769;28;20478;-78
2020/12/07 10:24:20;;;;;;;27.58;17.15;;;7.40;92.10;;;;;;5065423;28;20025;-78
2020/12/07 10:26:46;;;;;;;30.08;17.38;;;7.40;91.90;;;;;;5040304;28;20028;-78
2020/12/07 10:29:12;;;;;;;29.40;18.52;;;7.40;91.70;;;;;;5069872;28;20488;-78
2020/12/07 10:31:38;;;;;;;30.73;17.15;;;7.40;91.90;;;;;;5068716;28;20040;-78
2020/12/07 10:34:03;;;;;;;30.02;18.40;;;7.40;91.70;;;;;;5065900;28;20059;-78
2020/12/07 10:36:29;;;;;;;31.88;19.13;;;7.40;92.00;;;;;;5068641;28;20032;-77
2020/12/07 10:38:55;;;;;;;33.33;18.85;;;7.40;91.60;;;;;;5057570;28;20016;-78
2020/12/07 10:41:29;;;;;;;28.92;18.40;;;7.40;91.70;;;;;;5073759;28;20025;-77
2020/12/07 10:43:57;;;;;;;32.00;19.92;;;7.40;91.70;;;;;;5054746;28;21910;-78
2020/12/07 10:46:22;;;;;;;30.55;19.48;;;7.40;91.50;;;;;;5055082;28;20025;-77
2020/12/07 10:48:48;;;;;;;31.42;19.58;;;7.40;91.50;;;;;;5055288;28;20051;-77
2020/12/07 10:51:14;;;;;;;35.38;20.48;;;7.40;91.40;;;;;;5056477;28;20029;-77
2020/12/07 10:53:41;;;;;;;33.72;20.58;;;7.40;91.20;;;;;;5053987;28;20031;-78
2020/12/07 10:56:11;;;;;;;31.55;19.20;;;7.40;91.00;;;;;;5056276;28;20395;-77
2020/12/07 10:58:40;;;;;;;34.42;19.08;;;7.30;91.00;;;;;;5055615;28;20056;-78
2020/12/07 11:01:06;;;;;;;32.17;18.67;;;7.30;91.10;;;;;;5055685;28;20407;-78
2020/12/07 11:03:32;;;;;;;32.88;20.52;;;7.30;91.00;;;;;;5037539;28;20025;-78
2020/12/07 11:05:58;;;;;;;35.00;20.27;;;7.20;91.10;;;;;;5053775;28;20029;-77
2020/12/07 11:08:36;;;;;;;35.13;19.50;;;7.30;90.60;;;;;;5072399;28;20419;-78
2020/12/07 11:11:01;;;;;;;34.70;20.25;;;7.20;90.70;;;;;;5052532;28;20027;-79
2020/12/07 11:13:29;;;;;;;26.92;16.60;;;7.20;90.40;;;;;;5074191;28;20020;-78
2020/12/07 11:15:56;;;;;;;27.05;16.85;;;7.10;89.50;;;;;;5074067;28;20529;-78
2020/12/07 11:18:21;;;;;;;26.45;14.95;;;7.10;89.60;;;;;;5056526;28;20039;-78
2020/12/07 11:20:47;;;;;;;23.23;14.35;;;7.10;88.30;;;;;;5054921;28;20111;-77
2020/12/07 11:23:13;;;;;;;28.67;15.98;;;7.00;88.80;;;;;;5069746;28;20040;-78
2020/12/07 11:25:39;;;;;;;26.52;15.30;;;7.00;88.60;;;;;;5067585;28;20025;-77
2020/12/07 11:28:05;;;;;;;26.65;15.77;;;7.00;89.20;;;;;;5055333;28;20504;-77
2020/12/07 11:30:30;;;;;;;29.55;15.43;;;6.90;89.20;;;;;;5055353;28;20017;-77
2020/12/07 11:32:58;;;;;;;28.55;16.33;;;6.90;89.10;;;;;;5073483;28;20621;-78
2020/12/07 11:35:24;;;;;;;27.73;16.13;;;6.90;89.70;;;;;;5073562;28;20028;-77
2020/12/07 11:37:55;;;;;;;28.02;15.70;;;6.90;89.80;;;;;;5055907;28;20058;-76
2020/12/07 11:43:33;;;;;;;30.67;16.05;;;6.80;89.50;;;;;;5032192;28;19909;-78
2020/12/07 11:45:58;;;;;;;31.00;16.65;;;6.80;89.50;;;;;;5056439;28;20483;-81
2020/12/07 11:48:24;;;;;;;34.45;18.63;;;6.80;89.70;;;;;;5056467;28;20043;-78
2020/12/07 11:50:50;;;;;;;32.55;17.98;;;6.80;89.30;;;;;;5054968;28;20028;-78
2020/12/07 11:53:15;;;;;;;32.65;17.45;;;6.80;89.40;;;;;;5072948;28;20028;-79
2020/12/07 11:55:44;;;;;;;34.45;18.30;;;6.80;89.30;;;;;;5059273;28;20056;-83
2020/12/07 11:58:10;;;;;;;31.88;17.08;;;6.80;89.10;;;;;;5058059;28;20021;-80
2020/12/07 12:00:36;;;;;;;30.23;15.98;;;6.80;89.40;;;;;;5050687;28;20539;-79
2020/12/07 12:03:02;;;;;;;26.15;14.40;;;6.80;88.50;;;;;;5054445;28;20036;-79
2020/12/07 12:05:28;;;;;;;27.00;15.15;;;6.80;87.90;;;;;;5056007;28;20032;-79
2020/12/07 12:07:54;;;;;;;26.13;13.93;;;6.70;87.80;;;;;;5053357;28;20027;-79
2020/12/07 12:10:20;;;;;;;26.77;14.20;;;6.70;87.70;;;;;;5058553;28;20040;-79
2020/12/07 12:12:45;;;;;;;27.50;15.45;;;6.70;88.10;;;;;;5056107;28;20032;-80
2020/12/07 12:15:11;;;;;;;33.30;16.58;;;6.70;88.00;;;;;;5070456;28;20035;-79
2020/12/07 12:17:37;;;;;;;28.85;15.68;;;6.70;87.90;;;;;;5075802;28;20020;-78
2020/12/07 12:20:03;;;;;;;28.95;15.30;;;6.70;87.90;;;;;;5050224;28;20025;-79
2020/12/07 12:22:29;;;;;;;24.75;13.70;;;6.70;87.40;;;;;;5039060;28;20067;-80
2020/12/07 12:24:55;;;;;;;26.25;14.60;;;6.70;87.30;;;;;;5047698;28;20177;-80
2020/12/07 12:27:22;;;;;;;23.05;13.45;;;6.70;87.10;;;;;;5062485;28;20084;-80
2020/12/07 12:29:48;;;;;;;27.17;14.68;;;6.70;87.00;;;;;;5028190;28;20567;-80
2020/12/07 12:32:13;;;;;;;27.25;14.27;;;6.70;87.00;;;;;;5030441;28;20147;-80
2020/12/07 12:34:40;;;;;;;22.10;12.55;;;6.70;87.30;;;;;;5043988;28;20103;-81
2020/12/07 12:37:06;;;;;;;22.38;12.75;;;6.70;86.70;;;;;;5062164;28;20033;-80
2020/12/07 12:39:32;;;;;;;20.60;11.85;;;6.70;87.00;;;;;;5046060;28;20032;-81
2020/12/07 12:41:57;;;;;;;18.50;10.93;;;6.60;86.90;;;;;;5045068;28;20029;-80
2020/12/07 12:44:23;;;;;;;17.88;11.43;;;6.50;87.30;;;;;;5044905;28;20068;-80
2020/12/07 12:46:48;;;;;;;19.17;11.07;;;6.50;87.60;;;;;;5060866;28;20036;-80
2020/12/07 12:49:14;;;;;;;15.07;9.90;;;6.60;87.10;;;;;;5048326;28;20024;-80
2020/12/07 12:51:45;;;;;;;13.90;9.23;;;6.60;87.10;;;;;;5049650;28;20055;-81
2020/12/07 12:54:11;;;;;;;16.67;9.57;;;6.60;86.10;;;;;;5073047;28;20024;-81
2020/12/07 12:56:36;;;;;;;13.18;8.93;;;6.50;86.60;;;;;;5071193;28;20090;-80
2020/12/07 12:59:02;;;;;;;12.25;8.68;;;6.50;86.60;;;;;;5071308;28;20396;-81
2020/12/07 13:01:28;;;;;;;16.75;9.80;;;6.60;86.80;;;;;;5049229;28;20020;-81
2020/12/07 13:03:54;;;;;;;16.40;10.73;;;6.60;86.90;;;;;;5056551;28;20438;-81
2020/12/07 13:06:19;;;;;;;19.00;10.35;;;6.60;86.80;;;;;;5067715;28;20035;-81
2020/12/07 13:08:45;;;;;;;13.02;8.93;;;6.60;87.30;;;;;;5049400;28;20028;-80